sensor_id;sensor_type;location;lat;lon;timestamp;temperature;humidity
14771;DHT22;7477;45.222;5.688;2022-09-17T00:01:29;16.40;99.90
14771;DHT22;7477;45.222;5.688;2022-09-17T00:04:51;16.30;99.90
14771;DHT22;7477;45.222;5.688;2022-09-17T00:08:12;16.30;99.90
14771;DHT22;7477;45.222;5.688;2022-09-17T00:11:35;16.20;99.90
14771;DHT22;7477;45.222;5.688;2022-09-17T00:14:55;16.20;99.90
14771;DHT22;7477;45.222;5.688;2022-09-17T00:18:15;16.20;99.90
14771;DHT22;7477;45.222;5.688;2022-09-17T00:21:35;16.20;99.90
14771;DHT22;7477;45.222;5.688;2022-09-17T00:24:54;16.10;99.90
14771;DHT22;7477;45.222;5.688;2022-09-17T00:28:14;16.10;99.90
14771;DHT22;7477;45.222;5.688;2022-09-17T00:31:34;16.10;99.90
14771;DHT22;7477;45.222;5.688;2022-09-17T00:34:53;15.90;99.90
14771;DHT22;7477;45.222;5.688;2022-09-17T00:38:12;16.00;99.90
14771;DHT22;7477;45.222;5.688;2022-09-17T00:41:33;15.90;99.90
14771;DHT22;7477;45.222;5.688;2022-09-17T00:44:55;15.90;99.90
14771;DHT22;7477;45.222;5.688;2022-09-17T00:48:15;15.70;99.90
14771;DHT22;7477;45.222;5.688;2022-09-17T00:51:52;15.70;99.90
14771;DHT22;7477;45.222;5.688;2022-09-17T00:58:41;15.50;99.90
14771;DHT22;7477;45.222;5.688;2022-09-17T01:02:01;15.50;99.90
14771;DHT22;7477;45.222;5.688;2022-09-17T01:05:30;15.50;99.90
14771;DHT22;7477;45.222;5.688;2022-09-17T01:13:11;15.40;99.90
14771;DHT22;7477;45.222;5.688;2022-09-17T01:34:45;15.20;99.90
14771;DHT22;7477;45.222;5.688;2022-09-17T01:38:14;15.20;99.90
14771;DHT22;7477;45.222;5.688;2022-09-17T01:41:47;15.20;99.90
14771;DHT22;7477;45.222;5.688;2022-09-17T01:45:18;15.10;99.90
14771;DHT22;7477;45.222;5.688;2022-09-17T01:48:44;15.00;99.90
14771;DHT22;7477;45.222;5.688;2022-09-17T01:52:06;15.00;99.90
14771;DHT22;7477;45.222;5.688;2022-09-17T01:55:31;15.00;99.90
14771;DHT22;7477;45.222;5.688;2022-09-17T01:58:57;14.80;99.90
14771;DHT22;7477;45.222;5.688;2022-09-17T02:05:57;14.80;99.90
14771;DHT22;7477;45.222;5.688;2022-09-17T02:09:40;14.80;99.90
14771;DHT22;7477;45.222;5.688;2022-09-17T02:13:39;14.80;99.90
14771;DHT22;7477;45.222;5.688;2022-09-17T02:16:55;14.70;99.90
14771;DHT22;7477;45.222;5.688;2022-09-17T02:20:17;14.60;99.90
14771;DHT22;7477;45.222;5.688;2022-09-17T02:23:49;14.60;99.90
14771;DHT22;7477;45.222;5.688;2022-09-17T02:27:22;14.60;99.90
14771;DHT22;7477;45.222;5.688;2022-09-17T02:30:43;14.50;99.90
14771;DHT22;7477;45.222;5.688;2022-09-17T02:34:03;14.60;99.90
14771;DHT22;7477;45.222;5.688;2022-09-17T02:37:23;14.50;99.90
14771;DHT22;7477;45.222;5.688;2022-09-17T02:40:47;14.50;99.90
14771;DHT22;7477;45.222;5.688;2022-09-17T02:44:44;14.30;99.80
14771;DHT22;7477;45.222;5.688;2022-09-17T02:48:12;14.40;99.90
14771;DHT22;7477;45.222;5.688;2022-09-17T02:52:10;14.30;99.90
14771;DHT22;7477;45.222;5.688;2022-09-17T02:55:49;14.40;99.90
14771;DHT22;7477;45.222;5.688;2022-09-17T02:59:21;14.30;99.90
14771;DHT22;7477;45.222;5.688;2022-09-17T03:06:17;14.30;99.90
14771;DHT22;7477;45.222;5.688;2022-09-17T03:09:37;14.20;99.90
14771;DHT22;7477;45.222;5.688;2022-09-17T03:12:56;14.10;99.90
14771;DHT22;7477;45.222;5.688;2022-09-17T03:16:15;14.20;99.90
14771;DHT22;7477;45.222;5.688;2022-09-17T03:19:34;14.30;99.90
14771;DHT22;7477;45.222;5.688;2022-09-17T03:22:54;14.10;99.90
14771;DHT22;7477;45.222;5.688;2022-09-17T03:26:13;14.10;99.90
14771;DHT22;7477;45.222;5.688;2022-09-17T03:29:32;14.20;99.90
14771;DHT22;7477;45.222;5.688;2022-09-17T03:32:52;14.10;99.90
14771;DHT22;7477;45.222;5.688;2022-09-17T03:36:11;14.10;99.90
14771;DHT22;7477;45.222;5.688;2022-09-17T03:39:30;14.10;99.90
14771;DHT22;7477;45.222;5.688;2022-09-17T03:42:49;14.00;99.90
14771;DHT22;7477;45.222;5.688;2022-09-17T03:46:08;14.00;99.90
14771;DHT22;7477;45.222;5.688;2022-09-17T03:49:28;14.00;99.90
14771;DHT22;7477;45.222;5.688;2022-09-17T03:52:47;14.00;99.90
14771;DHT22;7477;45.222;5.688;2022-09-17T03:56:06;13.90;99.90
14771;DHT22;7477;45.222;5.688;2022-09-17T03:59:26;13.90;99.90
14771;DHT22;7477;45.222;5.688;2022-09-17T04:02:47;14.00;99.90
14771;DHT22;7477;45.222;5.688;2022-09-17T04:06:07;13.90;99.90
14771;DHT22;7477;45.222;5.688;2022-09-17T04:09:26;13.90;99.90
14771;DHT22;7477;45.222;5.688;2022-09-17T04:12:45;13.90;99.80
14771;DHT22;7477;45.222;5.688;2022-09-17T04:16:04;13.90;99.90
14771;DHT22;7477;45.222;5.688;2022-09-17T04:19:24;13.80;99.70
14771;DHT22;7477;45.222;5.688;2022-09-17T04:22:43;13.80;99.90
14771;DHT22;7477;45.222;5.688;2022-09-17T04:26:02;13.80;99.90
14771;DHT22;7477;45.222;5.688;2022-09-17T04:29:22;13.80;99.90
14771;DHT22;7477;45.222;5.688;2022-09-17T04:32:45;13.70;99.90
14771;DHT22;7477;45.222;5.688;2022-09-17T04:36:04;13.70;99.90
14771;DHT22;7477;45.222;5.688;2022-09-17T04:39:23;13.60;99.90
14771;DHT22;7477;45.222;5.688;2022-09-17T04:42:42;13.60;99.90
14771;DHT22;7477;45.222;5.688;2022-09-17T04:46:01;13.60;99.90
14771;DHT22;7477;45.222;5.688;2022-09-17T04:49:21;13.60;99.90
14771;DHT22;7477;45.222;5.688;2022-09-17T04:52:44;13.50;99.90
14771;DHT22;7477;45.222;5.688;2022-09-17T04:56:03;13.50;99.90
14771;DHT22;7477;45.222;5.688;2022-09-17T04:59:23;13.50;99.90
14771;DHT22;7477;45.222;5.688;2022-09-17T05:02:44;13.40;99.90
14771;DHT22;7477;45.222;5.688;2022-09-17T05:06:04;13.30;99.90
14771;DHT22;7477;45.222;5.688;2022-09-17T05:09:24;13.30;99.90
14771;DHT22;7477;45.222;5.688;2022-09-17T05:12:50;13.30;99.90
14771;DHT22;7477;45.222;5.688;2022-09-17T05:16:09;13.30;99.90
14771;DHT22;7477;45.222;5.688;2022-09-17T05:19:28;13.30;99.90
14771;DHT22;7477;45.222;5.688;2022-09-17T05:22:49;13.20;99.90
14771;DHT22;7477;45.222;5.688;2022-09-17T05:26:12;13.20;99.90
14771;DHT22;7477;45.222;5.688;2022-09-17T05:29:32;13.20;99.90
14771;DHT22;7477;45.222;5.688;2022-09-17T05:33:02;13.10;99.90
14771;DHT22;7477;45.222;5.688;2022-09-17T05:36:22;13.20;99.90
14771;DHT22;7477;45.222;5.688;2022-09-17T05:39:41;13.10;99.90
14771;DHT22;7477;45.222;5.688;2022-09-17T05:43:02;13.10;99.90
14771;DHT22;7477;45.222;5.688;2022-09-17T05:46:21;13.10;99.90
14771;DHT22;7477;45.222;5.688;2022-09-17T05:49:40;13.00;99.90
14771;DHT22;7477;45.222;5.688;2022-09-17T05:53:04;13.00;99.90
14771;DHT22;7477;45.222;5.688;2022-09-17T05:56:24;13.00;99.90
14771;DHT22;7477;45.222;5.688;2022-09-17T05:59:43;13.00;99.90
14771;DHT22;7477;45.222;5.688;2022-09-17T06:03:03;13.00;99.90
14771;DHT22;7477;45.222;5.688;2022-09-17T06:06:22;12.90;99.90
14771;DHT22;7477;45.222;5.688;2022-09-17T06:09:42;12.90;99.90
14771;DHT22;7477;45.222;5.688;2022-09-17T06:13:01;12.80;99.90
14771;DHT22;7477;45.222;5.688;2022-09-17T06:16:22;12.90;99.90
14771;DHT22;7477;45.222;5.688;2022-09-17T06:19:41;12.90;99.90
14771;DHT22;7477;45.222;5.688;2022-09-17T06:23:01;12.80;99.90
14771;DHT22;7477;45.222;5.688;2022-09-17T06:26:20;12.90;99.90
14771;DHT22;7477;45.222;5.688;2022-09-17T06:29:39;12.90;99.90
14771;DHT22;7477;45.222;5.688;2022-09-17T06:32:59;12.80;99.90
14771;DHT22;7477;45.222;5.688;2022-09-17T06:36:19;12.90;99.90
14771;DHT22;7477;45.222;5.688;2022-09-17T06:39:38;12.90;99.90
14771;DHT22;7477;45.222;5.688;2022-09-17T06:42:58;12.80;99.90
14771;DHT22;7477;45.222;5.688;2022-09-17T06:46:18;12.90;99.90
14771;DHT22;7477;45.222;5.688;2022-09-17T06:49:37;12.90;99.90
14771;DHT22;7477;45.222;5.688;2022-09-17T06:52:57;12.90;99.90
14771;DHT22;7477;45.222;5.688;2022-09-17T06:56:16;12.90;99.90
14771;DHT22;7477;45.222;5.688;2022-09-17T06:59:35;12.90;99.90
14771;DHT22;7477;45.222;5.688;2022-09-17T07:02:56;12.90;99.90
14771;DHT22;7477;45.222;5.688;2022-09-17T07:06:15;12.90;99.90
14771;DHT22;7477;45.222;5.688;2022-09-17T07:09:34;12.90;99.90
14771;DHT22;7477;45.222;5.688;2022-09-17T07:12:54;12.90;99.90
14771;DHT22;7477;45.222;5.688;2022-09-17T07:16:13;13.00;99.90
14771;DHT22;7477;45.222;5.688;2022-09-17T07:19:32;13.00;99.90
14771;DHT22;7477;45.222;5.688;2022-09-17T07:22:56;13.00;99.90
14771;DHT22;7477;45.222;5.688;2022-09-17T07:26:16;13.10;99.90
14771;DHT22;7477;45.222;5.688;2022-09-17T07:29:35;13.10;99.90
14771;DHT22;7477;45.222;5.688;2022-09-17T07:32:54;13.20;99.80
14771;DHT22;7477;45.222;5.688;2022-09-17T07:36:14;13.20;99.50
14771;DHT22;7477;45.222;5.688;2022-09-17T07:39:36;13.20;99.20
14771;DHT22;7477;45.222;5.688;2022-09-17T07:42:58;13.30;99.10
14771;DHT22;7477;45.222;5.688;2022-09-17T07:46:18;13.40;99.20
14771;DHT22;7477;45.222;5.688;2022-09-17T07:49:38;13.50;99.30
14771;DHT22;7477;45.222;5.688;2022-09-17T07:52:57;13.50;99.10
14771;DHT22;7477;45.222;5.688;2022-09-17T07:56:16;13.60;99.20
14771;DHT22;7477;45.222;5.688;2022-09-17T07:59:35;13.60;98.70
14771;DHT22;7477;45.222;5.688;2022-09-17T08:02:56;13.50;98.70
14771;DHT22;7477;45.222;5.688;2022-09-17T08:06:17;13.60;99.30
14771;DHT22;7477;45.222;5.688;2022-09-17T08:09:38;13.70;99.00
14771;DHT22;7477;45.222;5.688;2022-09-17T08:12:57;13.80;98.70
14771;DHT22;7477;45.222;5.688;2022-09-17T08:16:18;13.80;98.40
14771;DHT22;7477;45.222;5.688;2022-09-17T08:19:38;13.80;98.50
14771;DHT22;7477;45.222;5.688;2022-09-17T08:23:00;13.90;98.10
14771;DHT22;7477;45.222;5.688;2022-09-17T08:26:21;13.90;98.20
14771;DHT22;7477;45.222;5.688;2022-09-17T08:29:40;14.00;98.00
14771;DHT22;7477;45.222;5.688;2022-09-17T08:33:01;14.00;97.70
14771;DHT22;7477;45.222;5.688;2022-09-17T08:36:20;13.90;97.10
14771;DHT22;7477;45.222;5.688;2022-09-17T08:39:41;13.90;97.20
14771;DHT22;7477;45.222;5.688;2022-09-17T08:43:01;14.00;96.90
14771;DHT22;7477;45.222;5.688;2022-09-17T08:46:22;14.00;96.50
14771;DHT22;7477;45.222;5.688;2022-09-17T08:49:51;14.20;97.20
14771;DHT22;7477;45.222;5.688;2022-09-17T08:56:53;14.40;96.40
14771;DHT22;7477;45.222;5.688;2022-09-17T09:00:18;14.30;95.90
14771;DHT22;7477;45.222;5.688;2022-09-17T09:07:28;14.40;95.30
14771;DHT22;7477;45.222;5.688;2022-09-17T09:10:55;14.50;95.30
14771;DHT22;7477;45.222;5.688;2022-09-17T09:14:22;14.50;95.20
14771;DHT22;7477;45.222;5.688;2022-09-17T09:17:44;14.50;95.50
14771;DHT22;7477;45.222;5.688;2022-09-17T09:21:33;14.50;95.40
14771;DHT22;7477;45.222;5.688;2022-09-17T09:25:23;14.60;95.30
14771;DHT22;7477;45.222;5.688;2022-09-17T09:36:07;14.80;94.00
14771;DHT22;7477;45.222;5.688;2022-09-17T09:39:29;14.80;93.70
14771;DHT22;7477;45.222;5.688;2022-09-17T09:42:54;14.90;93.80
14771;DHT22;7477;45.222;5.688;2022-09-17T09:50:14;14.90;93.10
14771;DHT22;7477;45.222;5.688;2022-09-17T09:57:24;15.20;92.30
14771;DHT22;7477;45.222;5.688;2022-09-17T10:00:50;15.10;92.00
14771;DHT22;7477;45.222;5.688;2022-09-17T10:07:42;15.20;91.90
14771;DHT22;7477;45.222;5.688;2022-09-17T10:14:25;15.40;91.90
14771;DHT22;7477;45.222;5.688;2022-09-17T10:17:45;15.40;91.40
14771;DHT22;7477;45.222;5.688;2022-09-17T10:21:07;15.40;90.80
14771;DHT22;7477;45.222;5.688;2022-09-17T10:24:37;15.50;91.30
14771;DHT22;7477;45.222;5.688;2022-09-17T10:28:02;15.60;91.10
14771;DHT22;7477;45.222;5.688;2022-09-17T10:31:23;15.70;90.50
14771;DHT22;7477;45.222;5.688;2022-09-17T10:35:00;15.70;89.70
14771;DHT22;7477;45.222;5.688;2022-09-17T10:42:16;16.00;90.20
14771;DHT22;7477;45.222;5.688;2022-09-17T10:45:37;16.10;91.00
14771;DHT22;7477;45.222;5.688;2022-09-17T10:49:10;16.20;91.10
14771;DHT22;7477;45.222;5.688;2022-09-17T10:52:36;16.30;93.10
14771;DHT22;7477;45.222;5.688;2022-09-17T10:56:14;16.70;94.20
14771;DHT22;7477;45.222;5.688;2022-09-17T11:03:36;16.70;95.20
14771;DHT22;7477;45.222;5.688;2022-09-17T11:10:35;16.90;95.70
14771;DHT22;7477;45.222;5.688;2022-09-17T11:14:32;16.50;92.60
14771;DHT22;7477;45.222;5.688;2022-09-17T11:18:27;16.30;91.50
14771;DHT22;7477;45.222;5.688;2022-09-17T11:22:15;16.50;91.10
14771;DHT22;7477;45.222;5.688;2022-09-17T11:30:00;16.60;91.00
14771;DHT22;7477;45.222;5.688;2022-09-17T11:33:21;16.50;91.20
14771;DHT22;7477;45.222;5.688;2022-09-17T11:37:09;16.50;91.80
14771;DHT22;7477;45.222;5.688;2022-09-17T11:41:09;16.70;91.60
14771;DHT22;7477;45.222;5.688;2022-09-17T11:44:41;16.80;91.90
14771;DHT22;7477;45.222;5.688;2022-09-17T11:48:17;16.80;91.80
14771;DHT22;7477;45.222;5.688;2022-09-17T11:51:58;16.90;91.70
14771;DHT22;7477;45.222;5.688;2022-09-17T11:59:17;16.80;91.40
14771;DHT22;7477;45.222;5.688;2022-09-17T12:02:41;16.80;91.00
14771;DHT22;7477;45.222;5.688;2022-09-17T12:06:09;16.70;91.30
14771;DHT22;7477;45.222;5.688;2022-09-17T12:09:32;16.80;91.40
14771;DHT22;7477;45.222;5.688;2022-09-17T12:12:56;16.80;91.60
14771;DHT22;7477;45.222;5.688;2022-09-17T12:16:20;16.80;91.70
14771;DHT22;7477;45.222;5.688;2022-09-17T12:19:45;16.80;91.70
14771;DHT22;7477;45.222;5.688;2022-09-17T12:23:11;16.90;91.60
14771;DHT22;7477;45.222;5.688;2022-09-17T12:33:45;17.10;91.30
14771;DHT22;7477;45.222;5.688;2022-09-17T12:49:08;16.90;90.70
14771;DHT22;7477;45.222;5.688;2022-09-17T13:00:13;17.10;88.20
14771;DHT22;7477;45.222;5.688;2022-09-17T13:03:44;17.20;88.40
14771;DHT22;7477;45.222;5.688;2022-09-17T13:21:33;17.50;89.20
14771;DHT22;7477;45.222;5.688;2022-09-17T13:25:10;17.60;87.10
14771;DHT22;7477;45.222;5.688;2022-09-17T13:28:45;17.50;87.10
14771;DHT22;7477;45.222;5.688;2022-09-17T13:32:04;17.40;87.90
14771;DHT22;7477;45.222;5.688;2022-09-17T13:38:43;17.60;87.40
14771;DHT22;7477;45.222;5.688;2022-09-17T13:46:13;17.50;86.80
14771;DHT22;7477;45.222;5.688;2022-09-17T13:49:33;17.60;89.40
14771;DHT22;7477;45.222;5.688;2022-09-17T13:52:57;17.70;87.40
14771;DHT22;7477;45.222;5.688;2022-09-17T13:56:42;17.80;87.80
14771;DHT22;7477;45.222;5.688;2022-09-17T14:00:02;17.80;88.30
14771;DHT22;7477;45.222;5.688;2022-09-17T14:06:48;18.00;86.30
14771;DHT22;7477;45.222;5.688;2022-09-17T14:13:41;18.10;85.60
14771;DHT22;7477;45.222;5.688;2022-09-17T14:17:02;18.10;86.00
14771;DHT22;7477;45.222;5.688;2022-09-17T14:20:23;18.10;86.00
14771;DHT22;7477;45.222;5.688;2022-09-17T14:23:45;18.10;85.00
14771;DHT22;7477;45.222;5.688;2022-09-17T14:30:46;18.60;85.60
14771;DHT22;7477;45.222;5.688;2022-09-17T14:34:12;18.80;85.10
14771;DHT22;7477;45.222;5.688;2022-09-17T14:37:33;18.40;84.90
14771;DHT22;7477;45.222;5.688;2022-09-17T14:41:05;18.20;85.80
14771;DHT22;7477;45.222;5.688;2022-09-17T14:44:26;18.30;85.50
14771;DHT22;7477;45.222;5.688;2022-09-17T14:48:44;18.20;85.30
14771;DHT22;7477;45.222;5.688;2022-09-17T14:51:57;18.30;86.10
14771;DHT22;7477;45.222;5.688;2022-09-17T14:55:22;17.80;85.80
14771;DHT22;7477;45.222;5.688;2022-09-17T14:58:47;17.90;85.40
14771;DHT22;7477;45.222;5.688;2022-09-17T15:05:47;18.50;85.10
14771;DHT22;7477;45.222;5.688;2022-09-17T15:09:24;18.40;85.20
14771;DHT22;7477;45.222;5.688;2022-09-17T15:12:45;18.20;86.20
14771;DHT22;7477;45.222;5.688;2022-09-17T15:16:12;18.40;84.30
14771;DHT22;7477;45.222;5.688;2022-09-17T15:19:37;18.00;85.20
14771;DHT22;7477;45.222;5.688;2022-09-17T15:23:21;17.90;84.60
14771;DHT22;7477;45.222;5.688;2022-09-17T15:26:42;17.60;85.10
14771;DHT22;7477;45.222;5.688;2022-09-17T15:30:12;17.40;86.10
14771;DHT22;7477;45.222;5.688;2022-09-17T15:33:32;17.50;86.60
14771;DHT22;7477;45.222;5.688;2022-09-17T15:37:07;17.30;86.30
14771;DHT22;7477;45.222;5.688;2022-09-17T15:40:37;17.50;86.40
14771;DHT22;7477;45.222;5.688;2022-09-17T15:44:20;17.90;85.80
14771;DHT22;7477;45.222;5.688;2022-09-17T15:51:26;18.30;85.40
14771;DHT22;7477;45.222;5.688;2022-09-17T15:54:46;17.80;84.30
14771;DHT22;7477;45.222;5.688;2022-09-17T16:02:01;17.50;85.30
14771;DHT22;7477;45.222;5.688;2022-09-17T16:08:43;17.40;85.40
14771;DHT22;7477;45.222;5.688;2022-09-17T16:12:02;17.20;86.20
14771;DHT22;7477;45.222;5.688;2022-09-17T16:15:21;17.10;86.60
14771;DHT22;7477;45.222;5.688;2022-09-17T16:18:40;17.10;87.80
14771;DHT22;7477;45.222;5.688;2022-09-17T16:22:00;17.50;86.90
14771;DHT22;7477;45.222;5.688;2022-09-17T16:25:25;17.40;86.00
14771;DHT22;7477;45.222;5.688;2022-09-17T16:28:46;17.10;87.00
14771;DHT22;7477;45.222;5.688;2022-09-17T16:32:11;17.00;86.60
14771;DHT22;7477;45.222;5.688;2022-09-17T16:35:30;16.90;86.60
14771;DHT22;7477;45.222;5.688;2022-09-17T16:38:50;16.80;87.10
14771;DHT22;7477;45.222;5.688;2022-09-17T16:42:09;16.80;87.00
14771;DHT22;7477;45.222;5.688;2022-09-17T16:45:29;16.70;87.00
14771;DHT22;7477;45.222;5.688;2022-09-17T16:48:49;16.60;87.50
14771;DHT22;7477;45.222;5.688;2022-09-17T16:52:09;16.60;87.10
14771;DHT22;7477;45.222;5.688;2022-09-17T16:55:28;16.60;87.20
14771;DHT22;7477;45.222;5.688;2022-09-17T16:58:47;16.60;87.30
14771;DHT22;7477;45.222;5.688;2022-09-17T17:02:08;16.50;87.00
14771;DHT22;7477;45.222;5.688;2022-09-17T17:05:29;16.50;87.00
14771;DHT22;7477;45.222;5.688;2022-09-17T17:08:48;16.50;87.70
14771;DHT22;7477;45.222;5.688;2022-09-17T17:12:08;16.40;87.80
14771;DHT22;7477;45.222;5.688;2022-09-17T17:15:28;16.40;88.00
14771;DHT22;7477;45.222;5.688;2022-09-17T17:18:48;16.30;86.60
14771;DHT22;7477;45.222;5.688;2022-09-17T17:22:09;16.30;87.30
14771;DHT22;7477;45.222;5.688;2022-09-17T17:25:29;16.30;86.90
14771;DHT22;7477;45.222;5.688;2022-09-17T17:28:49;16.30;86.50
14771;DHT22;7477;45.222;5.688;2022-09-17T17:32:08;16.20;86.50
14771;DHT22;7477;45.222;5.688;2022-09-17T17:35:27;16.20;86.60
14771;DHT22;7477;45.222;5.688;2022-09-17T17:38:47;16.10;86.70
14771;DHT22;7477;45.222;5.688;2022-09-17T17:42:06;16.10;86.70
14771;DHT22;7477;45.222;5.688;2022-09-17T17:45:25;16.00;86.10
14771;DHT22;7477;45.222;5.688;2022-09-17T17:48:45;16.00;86.80
14771;DHT22;7477;45.222;5.688;2022-09-17T17:52:05;15.90;86.00
14771;DHT22;7477;45.222;5.688;2022-09-17T17:55:24;15.90;85.90
14771;DHT22;7477;45.222;5.688;2022-09-17T17:58:44;15.90;85.70
14771;DHT22;7477;45.222;5.688;2022-09-17T18:02:03;15.80;85.60
14771;DHT22;7477;45.222;5.688;2022-09-17T18:05:23;15.80;85.50
14771;DHT22;7477;45.222;5.688;2022-09-17T18:08:42;15.80;85.30
14771;DHT22;7477;45.222;5.688;2022-09-17T18:12:02;15.70;85.30
14771;DHT22;7477;45.222;5.688;2022-09-17T18:15:21;15.70;84.70
14771;DHT22;7477;45.222;5.688;2022-09-17T18:18:41;15.70;84.60
14771;DHT22;7477;45.222;5.688;2022-09-17T18:22:01;15.70;84.60
14771;DHT22;7477;45.222;5.688;2022-09-17T18:25:20;15.60;84.60
14771;DHT22;7477;45.222;5.688;2022-09-17T18:28:40;15.50;84.10
14771;DHT22;7477;45.222;5.688;2022-09-17T18:32:00;15.50;84.40
14771;DHT22;7477;45.222;5.688;2022-09-17T18:35:19;15.50;84.20
14771;DHT22;7477;45.222;5.688;2022-09-17T18:38:40;15.40;84.40
14771;DHT22;7477;45.222;5.688;2022-09-17T18:41:59;15.40;85.00
14771;DHT22;7477;45.222;5.688;2022-09-17T18:45:18;15.30;85.40
14771;DHT22;7477;45.222;5.688;2022-09-17T18:48:37;15.30;85.40
14771;DHT22;7477;45.222;5.688;2022-09-17T18:51:56;16.50;86.80
14771;DHT22;7477;45.222;5.688;2022-09-17T18:55:16;15.20;85.40
14771;DHT22;7477;45.222;5.688;2022-09-17T18:58:35;15.20;85.60
14771;DHT22;7477;45.222;5.688;2022-09-17T19:01:57;15.10;85.80
14771;DHT22;7477;45.222;5.688;2022-09-17T19:05:16;15.10;86.00
14771;DHT22;7477;45.222;5.688;2022-09-17T19:08:36;15.00;86.10
14771;DHT22;7477;45.222;5.688;2022-09-17T19:11:56;15.00;86.40
14771;DHT22;7477;45.222;5.688;2022-09-17T19:15:16;14.90;86.00
14771;DHT22;7477;45.222;5.688;2022-09-17T19:18:35;14.90;85.70
14771;DHT22;7477;45.222;5.688;2022-09-17T19:21:55;14.90;85.70
14771;DHT22;7477;45.222;5.688;2022-09-17T19:25:14;14.80;85.40
14771;DHT22;7477;45.222;5.688;2022-09-17T19:28:34;14.80;84.60
14771;DHT22;7477;45.222;5.688;2022-09-17T19:31:54;14.80;84.30
14771;DHT22;7477;45.222;5.688;2022-09-17T19:35:14;14.80;83.70
14771;DHT22;7477;45.222;5.688;2022-09-17T19:38:34;14.80;83.70
14771;DHT22;7477;45.222;5.688;2022-09-17T19:41:53;14.70;83.90
14771;DHT22;7477;45.222;5.688;2022-09-17T19:45:12;14.80;83.80
14771;DHT22;7477;45.222;5.688;2022-09-17T19:48:33;14.70;83.40
14771;DHT22;7477;45.222;5.688;2022-09-17T19:51:55;14.60;83.30
14771;DHT22;7477;45.222;5.688;2022-09-17T19:55:14;14.60;83.00
14771;DHT22;7477;45.222;5.688;2022-09-17T19:58:34;14.60;83.20
14771;DHT22;7477;45.222;5.688;2022-09-17T20:01:53;14.60;83.10
14771;DHT22;7477;45.222;5.688;2022-09-17T20:05:12;14.50;83.00
14771;DHT22;7477;45.222;5.688;2022-09-17T20:08:32;14.50;82.80
14771;DHT22;7477;45.222;5.688;2022-09-17T20:11:51;14.50;83.30
14771;DHT22;7477;45.222;5.688;2022-09-17T20:15:10;14.50;83.10
14771;DHT22;7477;45.222;5.688;2022-09-17T20:18:29;14.50;83.50
14771;DHT22;7477;45.222;5.688;2022-09-17T20:21:49;14.40;83.90
14771;DHT22;7477;45.222;5.688;2022-09-17T20:25:09;14.30;83.40
14771;DHT22;7477;45.222;5.688;2022-09-17T20:28:28;14.30;83.20
14771;DHT22;7477;45.222;5.688;2022-09-17T20:31:47;14.30;83.30
14771;DHT22;7477;45.222;5.688;2022-09-17T20:35:07;14.30;82.90
14771;DHT22;7477;45.222;5.688;2022-09-17T20:38:26;14.30;83.50
14771;DHT22;7477;45.222;5.688;2022-09-17T20:41:45;14.20;84.10
14771;DHT22;7477;45.222;5.688;2022-09-17T20:45:05;14.10;84.30
14771;DHT22;7477;45.222;5.688;2022-09-17T20:48:24;14.10;84.70
14771;DHT22;7477;45.222;5.688;2022-09-17T20:51:43;14.00;84.70
14771;DHT22;7477;45.222;5.688;2022-09-17T20:55:03;14.00;84.70
14771;DHT22;7477;45.222;5.688;2022-09-17T20:58:24;14.00;85.40
14771;DHT22;7477;45.222;5.688;2022-09-17T21:01:48;13.90;84.90
14771;DHT22;7477;45.222;5.688;2022-09-17T21:05:07;13.90;84.70
14771;DHT22;7477;45.222;5.688;2022-09-17T21:08:27;13.90;85.30
14771;DHT22;7477;45.222;5.688;2022-09-17T21:11:47;13.80;85.70
14771;DHT22;7477;45.222;5.688;2022-09-17T21:15:07;13.70;85.30
14771;DHT22;7477;45.222;5.688;2022-09-17T21:18:27;13.70;85.80
14771;DHT22;7477;45.222;5.688;2022-09-17T21:21:47;13.70;86.40
14771;DHT22;7477;45.222;5.688;2022-09-17T21:25:09;13.60;86.10
14771;DHT22;7477;45.222;5.688;2022-09-17T21:28:30;13.70;85.50
14771;DHT22;7477;45.222;5.688;2022-09-17T21:31:50;13.60;85.50
14771;DHT22;7477;45.222;5.688;2022-09-17T21:35:11;13.60;85.60
14771;DHT22;7477;45.222;5.688;2022-09-17T21:38:30;13.60;85.20
14771;DHT22;7477;45.222;5.688;2022-09-17T21:41:49;13.50;85.60
14771;DHT22;7477;45.222;5.688;2022-09-17T21:45:09;13.50;85.60
14771;DHT22;7477;45.222;5.688;2022-09-17T21:48:29;13.40;85.50
14771;DHT22;7477;45.222;5.688;2022-09-17T21:51:49;13.40;85.80
14771;DHT22;7477;45.222;5.688;2022-09-17T21:55:08;13.40;85.30
14771;DHT22;7477;45.222;5.688;2022-09-17T21:58:28;13.40;85.40
14771;DHT22;7477;45.222;5.688;2022-09-17T22:01:48;13.40;85.30
14771;DHT22;7477;45.222;5.688;2022-09-17T22:05:08;13.30;85.20
14771;DHT22;7477;45.222;5.688;2022-09-17T22:08:28;13.30;85.30
14771;DHT22;7477;45.222;5.688;2022-09-17T22:11:48;13.30;85.50
14771;DHT22;7477;45.222;5.688;2022-09-17T22:15:08;13.30;85.80
14771;DHT22;7477;45.222;5.688;2022-09-17T22:18:28;13.20;86.10
14771;DHT22;7477;45.222;5.688;2022-09-17T22:21:49;13.10;86.60
14771;DHT22;7477;45.222;5.688;2022-09-17T22:25:09;13.10;86.40
14771;DHT22;7477;45.222;5.688;2022-09-17T22:28:29;13.10;86.50
14771;DHT22;7477;45.222;5.688;2022-09-17T22:31:49;13.10;86.60
14771;DHT22;7477;45.222;5.688;2022-09-17T22:35:09;13.00;87.10
14771;DHT22;7477;45.222;5.688;2022-09-17T22:38:29;13.00;87.70
14771;DHT22;7477;45.222;5.688;2022-09-17T22:41:48;13.00;86.90
14771;DHT22;7477;45.222;5.688;2022-09-17T22:45:08;13.00;86.10
14771;DHT22;7477;45.222;5.688;2022-09-17T22:48:28;13.00;85.60
14771;DHT22;7477;45.222;5.688;2022-09-17T22:51:48;12.90;86.10
14771;DHT22;7477;45.222;5.688;2022-09-17T22:55:08;12.90;86.00
14771;DHT22;7477;45.222;5.688;2022-09-17T22:58:27;12.90;86.40
14771;DHT22;7477;45.222;5.688;2022-09-17T23:01:47;12.90;86.00
14771;DHT22;7477;45.222;5.688;2022-09-17T23:05:06;12.90;85.50
14771;DHT22;7477;45.222;5.688;2022-09-17T23:08:26;12.90;85.50
14771;DHT22;7477;45.222;5.688;2022-09-17T23:11:45;12.90;86.30
14771;DHT22;7477;45.222;5.688;2022-09-17T23:15:05;12.80;85.40
14771;DHT22;7477;45.222;5.688;2022-09-17T23:18:24;12.80;85.50
14771;DHT22;7477;45.222;5.688;2022-09-17T23:21:44;12.70;86.80
14771;DHT22;7477;45.222;5.688;2022-09-17T23:25:03;12.80;85.70
14771;DHT22;7477;45.222;5.688;2022-09-17T23:28:22;12.80;86.10
14771;DHT22;7477;45.222;5.688;2022-09-17T23:31:42;12.70;86.90
14771;DHT22;7477;45.222;5.688;2022-09-17T23:35:02;12.60;87.80
14771;DHT22;7477;45.222;5.688;2022-09-17T23:38:21;12.50;89.10
14771;DHT22;7477;45.222;5.688;2022-09-17T23:41:41;12.50;87.60
14771;DHT22;7477;45.222;5.688;2022-09-17T23:45:03;12.40;89.40
14771;DHT22;7477;45.222;5.688;2022-09-17T23:48:22;12.40;88.80
14771;DHT22;7477;45.222;5.688;2022-09-17T23:51:42;12.40;89.00
14771;DHT22;7477;45.222;5.688;2022-09-17T23:55:01;12.40;88.60
14771;DHT22;7477;45.222;5.688;2022-09-17T23:58:21;12.30;89.60
